Main page
METAR-TAF:

METAR-TAF

Airports :

Campbeltown Airport

Campbeltown, Scotland

latitude: 55-26-14N, longitude: 005-41-11W, elevation: 13 m

Current weather observation

The report was made 4 hours and 0 minutes ago, at 17:20 UTC
Wind 10 kt from the East/Southeast
Temperature 9°C
Humidity 87%
Pressure 1012 hPa
Visibility 10 km or more
Few clouds at a height of 2200 ft
Scattered clouds at a height of 3200 ft

METAR: EGEC 131720Z 12010KT 9999 FEW022 SCT032 09/07 Q1012

Time: 21:20 (21:20 UTC)

Forecast

The report was made 7 hours and 24 minutes ago, at 13:56 UTC
Forecast valid from 13 at 15 UTC to 13 at 18 UTC
Wind 16 kt from the South
Visibility 10 km or more
Few clouds at a height of 2000 ft

TAF: EGEC 131356Z 1315/1318 17016KT 9999 FEW020

Weather observations and forecasts of more than 4000 airports (METAR and TAF reports).

The available stations are represented by yellow and red dots on the map.

Hover mouse over dot to see the name of the station.

Then click to see weather observations and forecasts.

To change the map : click on the green buttons with a black cross to zoom in, on the green button with a dash to zoom out, or on the green arrows for adjacent maps.


METAR-TAF: